Time;durP1;ratioP1;P1;durP2;ratioP2;P2;SDS_P1;SDS_P2;PMS_P1;PMS_P2;Temp;Humidity;BMP_temperature;BMP_pressure;BME280_temperature;BME280_humidity;BME280_pressure;Samples;Min_cycle;Max_cycle;Signal;HPM_P1;HPM_P2
2023/12/24 00:00:47;;;;;;;4.40;3.87;;;9.20;99.90;;;;;;5096229;28;20440;-78
2023/12/24 00:03:17;;;;;;;3.70;3.37;;;9.20;99.90;;;;;;5096371;28;20464;-81
2023/12/24 00:05:47;;;;;;;4.37;3.90;;;9.20;99.90;;;;;;5096535;28;20452;-78
2023/12/24 00:08:25;;;;;;;3.97;3.57;;;9.20;99.90;;;;;;5095875;28;20443;-78
2023/12/24 00:10:53;;;;;;;4.80;4.10;;;9.20;99.90;;;;;;5095535;28;20466;-77
2023/12/24 00:13:21;;;;;;;5.30;4.33;;;9.20;99.90;;;;;;5096813;28;20432;-80
2023/12/24 00:15:50;;;;;;;5.40;4.53;;;9.20;99.90;;;;;;5096774;28;20903;-81
2023/12/24 00:18:18;;;;;;;5.30;4.80;;;9.20;99.90;;;;;;5095466;28;21022;-80
2023/12/24 00:20:48;;;;;;;4.67;4.27;;;9.20;99.90;;;;;;5095464;28;20455;-79
2023/12/24 00:23:16;;;;;;;5.93;5.03;;;9.20;99.90;;;;;;5094807;28;20452;-80
2023/12/24 00:25:44;;;;;;;5.10;4.60;;;9.20;99.90;;;;;;5094497;28;20563;-80
2023/12/24 00:28:13;;;;;;;5.77;4.83;;;9.20;99.90;;;;;;5095283;28;20550;-80
2023/12/24 00:30:41;;;;;;;6.67;4.87;;;9.20;99.90;;;;;;5095037;28;20945;-80
2023/12/24 00:33:09;;;;;;;5.33;4.87;;;9.20;99.90;;;;;;5095372;28;20445;-82
2023/12/24 00:35:38;;;;;;;5.20;4.70;;;9.30;99.90;;;;;;5096173;28;20476;-80
2023/12/24 00:38:07;;;;;;;7.70;4.77;;;9.30;99.90;;;;;;5096409;28;20444;-81
2023/12/24 00:40:36;;;;;;;5.33;4.83;;;9.20;99.90;;;;;;5096233;28;20456;-81
2023/12/24 00:43:04;;;;;;;7.00;5.27;;;9.30;99.90;;;;;;5095763;28;20444;-80
2023/12/24 00:45:32;;;;;;;11.27;5.53;;;9.30;99.90;;;;;;5096172;28;20479;-80
2023/12/24 00:48:01;;;;;;;5.60;5.00;;;9.20;99.90;;;;;;5096613;28;20456;-79
2023/12/24 00:50:31;;;;;;;5.33;4.80;;;9.20;99.90;;;;;;5096015;28;20455;-80
2023/12/24 00:52:59;;;;;;;5.90;5.30;;;9.30;99.90;;;;;;5095332;28;21064;-78
2023/12/24 00:55:29;;;;;;;6.60;4.30;;;9.30;99.90;;;;;;5095768;28;20476;-80
2023/12/24 00:57:57;;;;;;;4.43;3.97;;;9.30;99.90;;;;;;5095415;28;20444;-80
2023/12/24 01:00:26;;;;;;;5.90;4.70;;;9.30;99.90;;;;;;5095623;28;20454;-79
2023/12/24 01:02:54;;;;;;;5.10;4.43;;;9.30;99.90;;;;;;5095541;28;20828;-79
2023/12/24 01:05:22;;;;;;;6.50;4.90;;;9.30;99.90;;;;;;5097188;28;20452;-81
2023/12/24 01:07:50;;;;;;;5.10;4.60;;;9.30;99.90;;;;;;5095547;28;20985;-79
2023/12/24 01:10:19;;;;;;;9.73;4.33;;;9.30;99.90;;;;;;5094828;28;20452;-80
2023/12/24 01:12:49;;;;;;;6.23;4.10;;;9.30;99.90;;;;;;5095151;28;20452;-79
2023/12/24 01:15:17;;;;;;;5.83;4.47;;;9.30;99.90;;;;;;5094885;28;20468;-79
2023/12/24 01:17:46;;;;;;;6.83;4.23;;;9.30;99.90;;;;;;5094580;28;20451;-80
2023/12/24 01:20:15;;;;;;;5.50;4.13;;;9.30;99.90;;;;;;5095082;28;20513;-81
2023/12/24 01:22:44;;;;;;;4.87;4.47;;;9.30;99.90;;;;;;5094675;28;20945;-80
2023/12/24 01:25:12;;;;;;;5.07;4.57;;;9.30;99.90;;;;;;5096493;28;20502;-79
2023/12/24 01:27:40;;;;;;;7.60;5.20;;;9.30;99.90;;;;;;5095039;28;20472;-78
2023/12/24 01:30:11;;;;;;;6.00;5.40;;;9.30;99.90;;;;;;5095385;28;20822;-79
2023/12/24 01:32:39;;;;;;;6.00;5.30;;;9.30;99.90;;;;;;5094502;28;20803;-79
2023/12/24 01:35:08;;;;;;;5.80;5.30;;;9.30;99.90;;;;;;5094565;28;20459;-80
2023/12/24 01:37:36;;;;;;;6.63;5.83;;;9.30;99.90;;;;;;5094754;28;20535;-79
2023/12/24 01:40:06;;;;;;;7.00;6.00;;;9.30;99.90;;;;;;5095334;28;20479;-78
2023/12/24 01:42:34;;;;;;;6.90;6.20;;;9.30;99.90;;;;;;5094507;28;20456;-81
2023/12/24 01:45:02;;;;;;;5.77;5.27;;;9.30;99.90;;;;;;5094345;28;20448;-79
2023/12/24 01:47:33;;;;;;;7.67;5.70;;;9.30;99.90;;;;;;5094656;28;20809;-80
2023/12/24 01:50:01;;;;;;;5.63;5.00;;;9.30;99.90;;;;;;5094324;28;20440;-80
2023/12/24 01:52:30;;;;;;;7.87;5.90;;;9.30;99.90;;;;;;5094194;28;20452;-80
2023/12/24 01:54:58;;;;;;;6.20;5.57;;;9.30;99.90;;;;;;5094703;28;20452;-79
2023/12/24 01:57:27;;;;;;;7.70;5.97;;;9.30;99.90;;;;;;5094294;28;20452;-78
2023/12/24 01:59:56;;;;;;;6.00;5.40;;;9.30;99.90;;;;;;5095092;28;20452;-80
2023/12/24 02:02:28;;;;;;;7.70;5.53;;;9.30;99.90;;;;;;5094336;28;20440;-80
2023/12/24 02:04:58;;;;;;;7.50;6.30;;;9.30;99.90;;;;;;5094206;28;20440;-79
2023/12/24 02:07:28;;;;;;;5.70;5.20;;;9.30;99.90;;;;;;5094080;28;20479;-79
2023/12/24 02:09:58;;;;;;;7.97;5.33;;;9.30;99.90;;;;;;5095137;28;20444;-78
2023/12/24 02:12:26;;;;;;;6.30;5.70;;;9.30;99.90;;;;;;5093760;28;20444;-78
2023/12/24 02:14:54;;;;;;;9.33;5.57;;;9.30;99.90;;;;;;5095327;28;20436;-78
2023/12/24 02:17:24;;;;;;;5.97;5.47;;;9.30;99.90;;;;;;5093968;28;20495;-78
2023/12/24 02:19:53;;;;;;;6.40;5.80;;;9.30;99.90;;;;;;5093826;28;20440;-78
2023/12/24 02:22:24;;;;;;;8.63;6.30;;;9.30;99.90;;;;;;5093875;28;20498;-78
2023/12/24 02:24:52;;;;;;;7.57;5.73;;;9.30;99.90;;;;;;5093836;28;20452;-79
2023/12/24 02:27:27;;;;;;;7.70;6.37;;;9.30;99.90;;;;;;5093532;28;20500;-79
2023/12/24 02:29:59;;;;;;;7.20;6.50;;;9.30;99.90;;;;;;5093803;28;20465;-79
2023/12/24 02:32:29;;;;;;;7.30;6.20;;;9.30;99.90;;;;;;5095390;28;20420;-80
2023/12/24 02:34:59;;;;;;;8.90;6.27;;;9.30;99.90;;;;;;5093883;28;20459;-77
2023/12/24 02:37:30;;;;;;;7.33;6.60;;;9.30;99.90;;;;;;5093348;28;20461;-78
2023/12/24 02:39:58;;;;;;;8.50;7.17;;;9.30;99.90;;;;;;5093511;28;20463;-78
2023/12/24 02:42:26;;;;;;;8.67;7.20;;;9.30;99.90;;;;;;5093269;28;20456;-79
2023/12/24 02:44:54;;;;;;;7.60;6.83;;;9.30;99.90;;;;;;5093009;28;20452;-78
2023/12/24 02:47:23;;;;;;;7.23;6.37;;;9.30;99.90;;;;;;5093301;28;20518;-77
2023/12/24 02:49:51;;;;;;;8.97;6.80;;;9.30;99.90;;;;;;5096800;28;20502;-80
2023/12/24 02:52:19;;;;;;;11.07;6.90;;;9.30;99.90;;;;;;5096712;28;20447;-79
2023/12/24 02:54:49;;;;;;;6.90;6.27;;;9.30;99.90;;;;;;5097309;28;20483;-80
2023/12/24 02:57:20;;;;;;;7.47;6.03;;;9.30;99.90;;;;;;5097041;28;20468;-79
2023/12/24 02:59:48;;;;;;;7.80;7.00;;;9.30;99.90;;;;;;5097115;28;20436;-80
2023/12/24 03:02:16;;;;;;;7.43;6.73;;;9.30;99.90;;;;;;5097847;28;20440;-79
2023/12/24 03:04:45;;;;;;;7.90;6.97;;;9.30;99.90;;;;;;5096770;28;20810;-81
2023/12/24 03:07:13;;;;;;;7.67;5.93;;;9.30;99.90;;;;;;5098162;28;20972;-79
2023/12/24 03:09:42;;;;;;;6.30;5.70;;;9.30;99.90;;;;;;5096723;28;20444;-80
2023/12/24 03:12:11;;;;;;;5.90;5.40;;;9.30;99.90;;;;;;5098784;28;20432;-79
2023/12/24 03:14:39;;;;;;;6.03;5.43;;;9.30;99.90;;;;;;5097310;28;20437;-80
2023/12/24 03:17:08;;;;;;;6.73;5.87;;;9.30;99.90;;;;;;5097369;28;20518;-79
2023/12/24 03:19:36;;;;;;;5.07;4.67;;;9.30;99.90;;;;;;5096984;28;20444;-79
2023/12/24 03:22:05;;;;;;;6.30;5.70;;;9.30;99.90;;;;;;5098523;28;20475;-80
2023/12/24 03:24:33;;;;;;;5.40;4.97;;;9.30;99.90;;;;;;5097057;28;20975;-81
2023/12/24 03:27:01;;;;;;;5.40;4.90;;;9.30;99.90;;;;;;5097288;28;20893;-79
2023/12/24 03:29:32;;;;;;;6.30;5.70;;;9.30;99.90;;;;;;5097123;28;20498;-79
2023/12/24 03:32:00;;;;;;;5.87;5.37;;;9.30;99.90;;;;;;5096835;28;20527;-79
2023/12/24 03:34:28;;;;;;;5.70;5.20;;;9.30;99.90;;;;;;5096425;28;20472;-77
2023/12/24 03:36:56;;;;;;;6.10;5.50;;;9.30;99.90;;;;;;5096751;28;20472;-78
2023/12/24 03:39:25;;;;;;;5.90;5.40;;;9.30;99.90;;;;;;5096844;28;20444;-79
2023/12/24 03:41:53;;;;;;;5.73;5.30;;;9.30;99.90;;;;;;5096107;28;20456;-79
2023/12/24 03:44:21;;;;;;;6.43;5.83;;;9.30;99.90;;;;;;5096391;28;20456;-79
2023/12/24 03:46:51;;;;;;;5.80;5.30;;;9.30;99.90;;;;;;5096346;28;20479;-80
2023/12/24 03:49:20;;;;;;;5.80;5.30;;;9.30;99.90;;;;;;5096311;28;20448;-80
2023/12/24 03:51:48;;;;;;;5.53;5.10;;;9.30;99.90;;;;;;5096202;28;20440;-81
2023/12/24 03:54:21;;;;;;;5.70;5.20;;;9.30;99.90;;;;;;5097248;28;20501;-79
2023/12/24 03:56:49;;;;;;;5.10;4.70;;;9.30;99.90;;;;;;5096445;28;20478;-79
2023/12/24 03:59:18;;;;;;;6.37;5.87;;;9.30;99.90;;;;;;5096669;28;20508;-79
2023/12/24 04:01:46;;;;;;;6.13;5.57;;;9.30;99.90;;;;;;5096899;28;20475;-79
2023/12/24 04:04:16;;;;;;;5.43;5.00;;;9.30;99.90;;;;;;5096431;28;20447;-80
2023/12/24 04:06:47;;;;;;;5.23;4.83;;;9.30;99.90;;;;;;5095912;28;20543;-79
2023/12/24 04:09:15;;;;;;;6.13;5.63;;;9.30;99.90;;;;;;5096369;28;20462;-78
2023/12/24 04:11:43;;;;;;;5.97;5.50;;;9.30;99.90;;;;;;5097357;28;20444;-78
2023/12/24 04:14:12;;;;;;;5.90;5.40;;;9.40;99.90;;;;;;5095840;28;20814;-77
2023/12/24 04:16:40;;;;;;;5.67;5.13;;;9.30;99.90;;;;;;5095391;28;20468;-77
2023/12/24 04:19:08;;;;;;;4.90;4.50;;;9.30;99.90;;;;;;5095089;28;20845;-77
2023/12/24 04:21:38;;;;;;;5.00;4.60;;;9.40;99.90;;;;;;5095207;28;20448;-78
2023/12/24 04:24:07;;;;;;;5.00;4.50;;;9.30;99.90;;;;;;5095029;28;20497;-78
2023/12/24 04:26:37;;;;;;;5.77;5.37;;;9.40;99.90;;;;;;5095336;28;20464;-79
2023/12/24 04:29:07;;;;;;;5.00;4.60;;;9.30;99.90;;;;;;5095698;28;20470;-79
2023/12/24 04:31:39;;;;;;;5.90;5.10;;;9.40;99.90;;;;;;5095406;28;20467;-80
2023/12/24 04:34:08;;;;;;;6.23;5.77;;;9.40;99.90;;;;;;5095245;28;20459;-78
2023/12/24 04:36:38;;;;;;;5.97;5.37;;;9.40;99.90;;;;;;5095311;28;20846;-79
2023/12/24 04:39:07;;;;;;;5.93;5.43;;;9.40;99.90;;;;;;5095082;28;20447;-78
2023/12/24 04:41:35;;;;;;;5.57;5.17;;;9.40;99.90;;;;;;5094609;28;20467;-78
2023/12/24 04:44:05;;;;;;;5.60;5.20;;;9.40;99.90;;;;;;5095425;28;20448;-79
2023/12/24 04:46:41;;;;;;;5.70;5.30;;;9.40;99.90;;;;;;5095147;28;20518;-77
2023/12/24 04:49:10;;;;;;;5.70;5.20;;;9.40;99.90;;;;;;5095388;28;20979;-78
2023/12/24 04:51:40;;;;;;;6.27;4.97;;;9.40;99.90;;;;;;5094862;28;20482;-79
2023/12/24 04:54:09;;;;;;;5.00;4.60;;;9.40;99.90;;;;;;5094947;28;20510;-78
2023/12/24 04:56:37;;;;;;;5.63;5.17;;;9.40;99.90;;;;;;5094290;28;20490;-77
2023/12/24 04:59:06;;;;;;;5.60;5.10;;;9.40;99.90;;;;;;5095133;28;20458;-79
2023/12/24 05:01:34;;;;;;;5.07;4.67;;;9.40;99.90;;;;;;5094240;28;20477;-78
2023/12/24 05:04:03;;;;;;;5.37;4.97;;;9.40;99.90;;;;;;5094826;28;21022;-78
2023/12/24 05:06:32;;;;;;;4.23;3.83;;;9.40;99.90;;;;;;5094678;28;20469;-79
2023/12/24 05:09:02;;;;;;;5.37;4.90;;;9.40;99.90;;;;;;5095482;28;20439;-77
2023/12/24 05:11:30;;;;;;;5.90;5.37;;;9.40;99.90;;;;;;5094577;28;20497;-76
2023/12/24 05:13:59;;;;;;;5.33;4.83;;;9.40;99.90;;;;;;5094943;28;20436;-80
2023/12/24 05:16:27;;;;;;;5.70;5.10;;;9.40;99.90;;;;;;5094892;28;20502;-79
2023/12/24 05:18:55;;;;;;;5.30;4.90;;;9.40;99.90;;;;;;5094802;28;20468;-79
2023/12/24 05:21:25;;;;;;;5.10;4.70;;;9.40;99.90;;;;;;5096929;28;20792;-78
2023/12/24 05:23:53;;;;;;;5.80;5.30;;;9.40;99.90;;;;;;5095092;28;20972;-80
2023/12/24 05:26:24;;;;;;;5.37;4.87;;;9.40;99.90;;;;;;5094689;28;20465;-77
2023/12/24 05:28:52;;;;;;;5.00;4.57;;;9.40;99.90;;;;;;5095700;28;20432;-78
2023/12/24 05:31:21;;;;;;;5.30;4.90;;;9.40;99.90;;;;;;5094624;28;20484;-78
2023/12/24 05:33:49;;;;;;;4.77;4.37;;;9.40;99.90;;;;;;5094799;28;20440;-77
2023/12/24 05:36:17;;;;;;;5.50;5.00;;;9.40;99.90;;;;;;5096049;28;20505;-77
2023/12/24 05:38:46;;;;;;;5.77;5.17;;;9.50;99.90;;;;;;5093643;28;20468;-78
2023/12/24 05:41:17;;;;;;;5.60;5.20;;;9.50;99.90;;;;;;5094815;28;20436;-78
2023/12/24 05:43:46;;;;;;;5.63;5.13;;;9.50;99.90;;;;;;5093870;28;20456;-77
2023/12/24 05:46:14;;;;;;;5.60;5.10;;;9.50;99.90;;;;;;5093783;28;20545;-79
2023/12/24 05:48:43;;;;;;;5.30;4.80;;;9.50;99.90;;;;;;5094013;28;20451;-77
2023/12/24 05:51:12;;;;;;;5.73;5.10;;;9.50;99.90;;;;;;5093397;28;20554;-79
2023/12/24 05:53:40;;;;;;;5.73;5.13;;;9.50;99.90;;;;;;5093456;28;20448;-77
2023/12/24 05:56:09;;;;;;;5.77;5.27;;;9.50;99.90;;;;;;5093342;28;20504;-78
2023/12/24 05:58:37;;;;;;;6.03;4.37;;;9.50;99.90;;;;;;5093113;28;20468;-78
2023/12/24 06:01:07;;;;;;;4.57;4.27;;;9.50;99.90;;;;;;5093341;28;20494;-77
2023/12/24 06:03:35;;;;;;;5.30;4.80;;;9.50;99.90;;;;;;5093217;28;20452;-77
2023/12/24 06:06:04;;;;;;;4.43;4.03;;;9.50;99.90;;;;;;5093758;28;20514;-76
2023/12/24 06:08:33;;;;;;;4.93;4.53;;;9.50;99.90;;;;;;5094225;28;20448;-78
2023/12/24 06:11:01;;;;;;;4.43;4.07;;;9.50;99.90;;;;;;5093789;28;20444;-78
2023/12/24 06:13:29;;;;;;;4.90;3.80;;;9.50;99.90;;;;;;5093900;28;20534;-77
2023/12/24 06:15:58;;;;;;;4.20;3.77;;;9.50;99.90;;;;;;5094870;28;20472;-78
2023/12/24 06:18:27;;;;;;;3.77;3.47;;;9.50;99.90;;;;;;5093440;28;20464;-79
2023/12/24 06:20:56;;;;;;;3.37;3.07;;;9.50;99.90;;;;;;5093649;28;20498;-76
2023/12/24 06:23:24;;;;;;;3.30;3.10;;;9.50;99.90;;;;;;5094539;28;20456;-78
2023/12/24 06:25:53;;;;;;;3.50;3.20;;;9.50;99.90;;;;;;5097743;28;20997;-77
2023/12/24 06:28:21;;;;;;;3.63;3.13;;;9.50;99.90;;;;;;5097392;28;20857;-76
2023/12/24 06:30:49;;;;;;;3.77;3.40;;;9.50;99.90;;;;;;5096618;28;20436;-77
2023/12/24 06:33:18;;;;;;;3.47;3.17;;;9.60;99.90;;;;;;5097181;28;20877;-77
2023/12/24 06:35:48;;;;;;;3.27;2.97;;;9.60;99.90;;;;;;5096837;28;20475;-77
2023/12/24 06:38:16;;;;;;;3.80;3.50;;;9.60;99.90;;;;;;5097896;28;20455;-77
2023/12/24 06:40:45;;;;;;;3.80;3.33;;;9.60;99.90;;;;;;5096881;28;20454;-77
2023/12/24 06:43:13;;;;;;;3.60;3.30;;;9.60;99.90;;;;;;5096807;28;20448;-77
2023/12/24 06:45:41;;;;;;;3.70;3.40;;;9.60;99.90;;;;;;5096768;28;20525;-77
2023/12/24 06:48:10;;;;;;;3.30;3.00;;;9.60;99.90;;;;;;5096827;28;20502;-77
2023/12/24 06:50:39;;;;;;;3.50;3.20;;;9.60;99.90;;;;;;5097105;28;21023;-77
2023/12/24 06:53:08;;;;;;;3.00;2.80;;;9.60;99.90;;;;;;5096710;28;20459;-76
2023/12/24 06:55:37;;;;;;;4.87;3.60;;;9.60;99.90;;;;;;5096746;28;20537;-78
2023/12/24 06:58:06;;;;;;;4.23;3.83;;;9.60;99.90;;;;;;5098290;28;20485;-77
2023/12/24 07:00:35;;;;;;;4.10;3.80;;;9.60;99.90;;;;;;5097804;28;20428;-78
2023/12/24 07:03:03;;;;;;;4.07;3.77;;;9.60;99.90;;;;;;5098184;28;20440;-78
2023/12/24 07:05:35;;;;;;;4.27;3.90;;;9.60;99.90;;;;;;5097643;28;20486;-78
2023/12/24 07:08:07;;;;;;;4.47;4.17;;;9.60;99.90;;;;;;5097621;28;20445;-79
2023/12/24 07:10:37;;;;;;;4.17;3.87;;;9.60;99.90;;;;;;5097850;28;20436;-77
2023/12/24 07:13:05;;;;;;;4.87;4.47;;;9.70;99.90;;;;;;5097559;28;20534;-77
2023/12/24 07:15:39;;;;;;;4.33;4.03;;;9.70;99.90;;;;;;5097120;28;20514;-78
2023/12/24 07:18:07;;;;;;;4.83;4.43;;;9.70;99.90;;;;;;5096888;28;20440;-78
2023/12/24 07:20:36;;;;;;;4.73;4.33;;;9.70;99.90;;;;;;5097087;28;20437;-78
2023/12/24 07:23:05;;;;;;;4.97;4.57;;;9.70;99.90;;;;;;5097790;28;20538;-79
2023/12/24 07:25:33;;;;;;;5.03;4.63;;;9.70;99.90;;;;;;5097054;28;20472;-77
2023/12/24 07:28:03;;;;;;;4.70;4.30;;;9.70;99.90;;;;;;5096847;28;20840;-77
2023/12/24 07:30:31;;;;;;;3.73;3.43;;;9.70;99.90;;;;;;5096486;28;20451;-78
2023/12/24 07:32:59;;;;;;;4.30;3.90;;;9.70;99.90;;;;;;5097938;28;20497;-77
2023/12/24 07:35:28;;;;;;;3.77;3.47;;;9.70;99.90;;;;;;5096300;28;20472;-78
2023/12/24 07:37:56;;;;;;;4.10;3.80;;;9.70;99.90;;;;;;5096950;28;20866;-78
2023/12/24 07:40:24;;;;;;;5.00;4.60;;;9.70;99.90;;;;;;5098084;28;20933;-79
2023/12/24 07:42:53;;;;;;;4.67;4.27;;;9.80;99.90;;;;;;5096733;28;20448;-77
2023/12/24 07:45:24;;;;;;;4.87;4.47;;;9.80;99.90;;;;;;5096762;28;20460;-80
2023/12/24 07:47:52;;;;;;;5.40;5.00;;;9.80;99.90;;;;;;5096922;28;20459;-78
2023/12/24 07:50:21;;;;;;;4.70;4.30;;;9.80;99.90;;;;;;5097028;28;20783;-79
2023/12/24 07:52:49;;;;;;;4.70;4.30;;;9.80;99.90;;;;;;5097643;28;20611;-79
2023/12/24 07:55:18;;;;;;;5.10;4.70;;;9.80;99.90;;;;;;5096785;28;20444;-79
2023/12/24 07:57:46;;;;;;;5.10;4.60;;;9.90;99.90;;;;;;5097518;28;20949;-77
2023/12/24 08:00:15;;;;;;;5.63;5.13;;;9.90;99.90;;;;;;5097701;28;20892;-79
2023/12/24 08:02:47;;;;;;;6.10;5.60;;;9.90;99.90;;;;;;5097394;28;20884;-78
2023/12/24 08:05:16;;;;;;;5.57;5.10;;;9.90;99.90;;;;;;5097412;28;20489;-78
2023/12/24 08:07:44;;;;;;;5.10;4.70;;;9.90;99.90;;;;;;5097160;28;20824;-79
2023/12/24 08:10:13;;;;;;;5.20;4.80;;;9.90;99.90;;;;;;5098299;28;20864;-78
2023/12/24 08:12:42;;;;;;;5.00;4.60;;;9.90;99.90;;;;;;5096379;28;20440;-77
2023/12/24 08:15:17;;;;;;;5.87;5.30;;;9.90;99.90;;;;;;5096479;28;20468;-77
2023/12/24 08:17:46;;;;;;;6.60;6.10;;;10.00;99.90;;;;;;5096223;28;20461;-78
2023/12/24 08:20:15;;;;;;;6.10;5.60;;;10.00;99.90;;;;;;5096757;28;20479;-78
2023/12/24 08:22:44;;;;;;;5.20;4.80;;;10.00;99.90;;;;;;5095610;28;20949;-78
2023/12/24 08:25:12;;;;;;;5.87;5.37;;;10.00;99.90;;;;;;5095775;28;20477;-78
2023/12/24 08:27:41;;;;;;;6.40;5.90;;;10.00;99.90;;;;;;5096016;28;20879;-79
2023/12/24 08:30:11;;;;;;;5.30;4.90;;;10.00;99.90;;;;;;5095583;28;20448;-78
2023/12/24 08:32:39;;;;;;;5.67;5.17;;;10.00;99.90;;;;;;5096034;28;20525;-77
2023/12/24 08:35:11;;;;;;;6.03;5.53;;;10.10;99.90;;;;;;5095044;28;20457;-78
2023/12/24 08:37:39;;;;;;;6.07;5.57;;;10.10;99.90;;;;;;5094856;28;20451;-79
2023/12/24 08:40:09;;;;;;;6.60;5.83;;;10.10;99.90;;;;;;5094778;28;20464;-78
2023/12/24 08:42:41;;;;;;;6.20;5.70;;;10.10;99.90;;;;;;5095010;28;20440;-79
2023/12/24 08:45:12;;;;;;;6.30;5.80;;;10.10;99.90;;;;;;5095494;28;20448;-78
2023/12/24 08:47:41;;;;;;;7.23;6.63;;;10.10;99.90;;;;;;5096447;28;20934;-78
2023/12/24 08:50:11;;;;;;;6.77;6.17;;;10.20;99.90;;;;;;5095236;28;20448;-77
2023/12/24 08:52:39;;;;;;;7.67;6.97;;;10.20;99.90;;;;;;5094722;28;20455;-77
2023/12/24 08:55:08;;;;;;;6.80;6.23;;;10.20;99.90;;;;;;5094878;28;20498;-78
2023/12/24 08:57:37;;;;;;;6.40;5.90;;;10.20;99.90;;;;;;5096194;28;20436;-78
2023/12/24 09:00:11;;;;;;;7.60;6.70;;;10.20;99.90;;;;;;5094841;28;20881;-78
2023/12/24 09:02:39;;;;;;;7.40;6.70;;;10.20;99.90;;;;;;5096817;28;20446;-78
2023/12/24 09:05:09;;;;;;;6.90;6.30;;;10.30;99.90;;;;;;5094620;28;20860;-77
2023/12/24 09:07:39;;;;;;;6.50;5.80;;;10.30;99.90;;;;;;5096048;28;20428;-77
2023/12/24 09:10:07;;;;;;;7.70;7.10;;;10.30;99.90;;;;;;5094602;28;20475;-78
2023/12/24 09:12:36;;;;;;;6.70;6.20;;;10.30;99.90;;;;;;5094477;28;20476;-79
2023/12/24 09:15:06;;;;;;;7.37;6.77;;;10.30;99.90;;;;;;5096306;28;20804;-77
2023/12/24 09:17:34;;;;;;;7.50;6.80;;;10.40;99.90;;;;;;5094632;28;20494;-78
2023/12/24 09:20:02;;;;;;;7.07;6.47;;;10.40;99.90;;;;;;5094599;28;20468;-78
2023/12/24 09:22:35;;;;;;;8.13;7.50;;;10.40;99.90;;;;;;5094384;28;20440;-78
2023/12/24 09:25:04;;;;;;;7.63;7.03;;;10.40;99.90;;;;;;5094151;28;20457;-77
2023/12/24 09:27:32;;;;;;;6.80;6.20;;;10.40;99.90;;;;;;5093842;28;20472;-79
2023/12/24 09:30:04;;;;;;;7.60;6.90;;;10.40;99.90;;;;;;5095155;28;20448;-78
2023/12/24 09:32:33;;;;;;;7.20;6.60;;;10.50;99.90;;;;;;5094502;28;20803;-78
2023/12/24 09:35:02;;;;;;;7.07;6.47;;;10.50;99.90;;;;;;5094143;28;20452;-78
2023/12/24 09:37:32;;;;;;;6.87;6.27;;;10.50;99.90;;;;;;5094239;28;20879;-80
2023/12/24 09:40:02;;;;;;;6.90;6.30;;;10.50;99.90;;;;;;5093870;28;20468;-78
2023/12/24 09:42:30;;;;;;;7.97;7.20;;;10.50;99.90;;;;;;5093846;28;20448;-78
2023/12/24 09:44:58;;;;;;;7.67;7.07;;;10.50;99.90;;;;;;5093515;28;20487;-79
2023/12/24 09:47:26;;;;;;;8.20;7.50;;;10.60;99.90;;;;;;5093864;28;20498;-79
2023/12/24 09:49:58;;;;;;;7.70;7.10;;;10.60;99.90;;;;;;5095456;28;20429;-79
2023/12/24 09:52:26;;;;;;;7.77;7.07;;;10.60;99.90;;;;;;5095361;28;20433;-78
2023/12/24 09:54:55;;;;;;;7.67;7.00;;;10.60;99.90;;;;;;5093923;28;20444;-78
2023/12/24 09:57:25;;;;;;;8.87;8.10;;;10.60;99.90;;;;;;5094184;28;20514;-79
2023/12/24 09:59:53;;;;;;;8.60;7.90;;;10.60;99.90;;;;;;5097410;28;20840;-79
2023/12/24 10:02:22;;;;;;;9.10;8.30;;;10.70;99.90;;;;;;5099425;28;20833;-78
2023/12/24 10:04:50;;;;;;;8.17;7.47;;;10.70;99.90;;;;;;5097812;28;20487;-78
2023/12/24 10:07:18;;;;;;;8.13;7.43;;;10.70;99.90;;;;;;5097605;28;21046;-78
2023/12/24 10:09:49;;;;;;;7.13;6.53;;;10.70;99.90;;;;;;5097571;28;20959;-78
2023/12/24 10:12:19;;;;;;;6.87;6.27;;;10.70;99.90;;;;;;5097809;28;20958;-78
2023/12/24 10:14:57;;;;;;;5.93;5.43;;;10.80;99.90;;;;;;5099595;28;20475;-78
2023/12/24 10:17:30;;;;;;;5.07;4.57;;;10.80;99.90;;;;;;5097831;28;20467;-78
2023/12/24 10:19:59;;;;;;;6.17;5.00;;;10.80;99.90;;;;;;5098312;28;20551;-79
2023/12/24 10:22:28;;;;;;;5.30;4.80;;;10.80;99.90;;;;;;5097684;28;20451;-79
2023/12/24 10:25:01;;;;;;;5.10;4.70;;;10.80;99.90;;;;;;5098020;28;20448;-80
2023/12/24 10:27:29;;;;;;;4.33;4.03;;;10.80;99.90;;;;;;5097583;28;20440;-78
2023/12/24 10:30:11;;;;;;;4.77;4.30;;;10.80;99.90;;;;;;5098829;28;20440;-77
2023/12/24 10:32:40;;;;;;;3.60;3.30;;;10.90;99.90;;;;;;5097169;28;20477;-79
2023/12/24 10:35:09;;;;;;;3.60;3.30;;;10.90;99.90;;;;;;5098540;28;20440;-79
2023/12/24 10:37:37;;;;;;;3.50;3.20;;;10.90;99.90;;;;;;5096850;28;20445;-79
2023/12/24 10:40:08;;;;;;;4.00;3.70;;;10.90;99.90;;;;;;5096997;28;20499;-79
2023/12/24 10:42:37;;;;;;;3.70;3.40;;;10.90;99.90;;;;;;5097438;28;20441;-79
2023/12/24 10:45:07;;;;;;;4.30;3.90;;;10.90;99.90;;;;;;5096824;28;20822;-78
2023/12/24 10:47:38;;;;;;;3.10;2.90;;;10.90;99.90;;;;;;5096807;28;20425;-78
2023/12/24 10:50:07;;;;;;;3.50;3.20;;;10.90;99.90;;;;;;5097456;28;20432;-80
2023/12/24 10:52:36;;;;;;;3.70;3.40;;;11.00;99.90;;;;;;5096757;28;20941;-80
2023/12/24 10:55:05;;;;;;;3.10;2.90;;;11.00;99.90;;;;;;5098337;28;20436;-79
2023/12/24 10:57:51;;;;;;;3.53;3.23;;;11.00;99.90;;;;;;5097081;28;20472;-80
2023/12/24 11:00:22;;;;;;;3.40;3.10;;;11.00;99.90;;;;;;5096680;28;20464;-78
2023/12/24 11:02:51;;;;;;;3.10;2.90;;;11.00;99.90;;;;;;5097051;28;20425;-80
2023/12/24 11:05:46;;;;;;;3.90;3.60;;;11.00;99.90;;;;;;5098687;28;20786;-79
2023/12/24 11:08:32;;;;;;;4.17;3.77;;;11.10;99.90;;;;;;5097738;28;20454;-79
2023/12/24 11:11:03;;;;;;;3.43;3.13;;;11.10;99.90;;;;;;5097072;28;20824;-79
2023/12/24 11:13:47;;;;;;;3.67;3.37;;;11.10;99.90;;;;;;5097355;28;20835;-80
2023/12/24 11:16:38;;;;;;;3.63;3.33;;;11.10;99.90;;;;;;5098122;28;20468;-81
2023/12/24 11:19:07;;;;;;;3.70;3.40;;;11.10;99.90;;;;;;5099853;28;20417;-80
2023/12/24 11:22:05;;;;;;;3.53;3.30;;;11.20;99.90;;;;;;5098423;28;20465;-80
2023/12/24 11:24:34;;;;;;;3.13;2.93;;;11.20;99.90;;;;;;5098194;28;20474;-79
2023/12/24 11:27:18;;;;;;;3.57;3.30;;;11.20;99.90;;;;;;5098757;28;20512;-78
2023/12/24 11:29:48;;;;;;;3.80;3.50;;;11.20;99.90;;;;;;5098250;28;20460;-79
2023/12/24 11:32:39;;;;;;;2.93;2.73;;;11.20;99.90;;;;;;5097927;28;20432;-80
2023/12/24 11:35:09;;;;;;;3.17;2.87;;;11.30;99.90;;;;;;5092199;28;20869;-81
2023/12/24 11:37:39;;;;;;;3.20;3.00;;;11.20;99.90;;;;;;5097773;28;20448;-80
2023/12/24 11:40:12;;;;;;;3.90;3.60;;;11.30;99.90;;;;;;5099019;28;20429;-79
2023/12/24 11:42:45;;;;;;;2.57;2.37;;;11.30;99.90;;;;;;5097089;28;20870;-80
2023/12/24 11:45:31;;;;;;;2.90;2.70;;;11.30;99.90;;;;;;5098978;28;20502;-80
2023/12/24 11:48:01;;;;;;;2.83;2.63;;;11.30;99.90;;;;;;5097298;28;20467;-78
2023/12/24 11:50:33;;;;;;;2.50;2.30;;;11.30;99.90;;;;;;5096434;28;20828;-80
2023/12/24 11:53:03;;;;;;;2.43;2.23;;;11.30;99.90;;;;;;5096871;28;20445;-79
2023/12/24 11:55:31;;;;;;;2.60;2.40;;;11.30;99.90;;;;;;5096828;28;20475;-80
2023/12/24 11:58:03;;;;;;;2.93;2.73;;;11.30;99.90;;;;;;5096625;28;20891;-79
2023/12/24 12:00:31;;;;;;;3.17;2.90;;;11.40;99.90;;;;;;5096284;28;20476;-80
2023/12/24 12:03:00;;;;;;;2.60;2.40;;;11.40;99.90;;;;;;5096464;28;20452;-80
2023/12/24 12:05:31;;;;;;;2.70;2.50;;;11.40;99.90;;;;;;5096589;28;20519;-80
2023/12/24 12:08:00;;;;;;;2.83;2.30;;;11.40;99.90;;;;;;5097404;28;20490;-81
2023/12/24 12:10:28;;;;;;;2.53;2.33;;;11.40;99.90;;;;;;5098498;28;20436;-80
2023/12/24 12:12:56;;;;;;;2.73;2.53;;;11.40;99.90;;;;;;5097823;28;20436;-79
2023/12/24 12:15:27;;;;;;;3.17;2.97;;;11.50;99.90;;;;;;5097658;28;20460;-81
2023/12/24 12:17:55;;;;;;;2.40;2.20;;;11.50;99.90;;;;;;5097769;28;20969;-80
2023/12/24 12:20:25;;;;;;;2.70;2.50;;;11.50;99.90;;;;;;5095529;28;20458;-80
2023/12/24 12:22:55;;;;;;;2.63;2.43;;;11.50;99.90;;;;;;5097766;28;20475;-80
2023/12/24 12:25:24;;;;;;;2.80;2.60;;;11.50;99.90;;;;;;5095932;28;20453;-80
2023/12/24 12:27:52;;;;;;;3.10;2.80;;;11.50;99.90;;;;;;5096271;28;20448;-81
2023/12/24 12:30:22;;;;;;;3.10;2.80;;;11.50;99.90;;;;;;5095841;28;20432;-80
2023/12/24 12:32:50;;;;;;;5.07;4.67;;;11.50;99.90;;;;;;5097504;28;20476;-80
2023/12/24 12:35:19;;;;;;;5.13;4.73;;;11.50;99.90;;;;;;5096301;28;20547;-80
2023/12/24 12:37:48;;;;;;;8.00;7.30;;;11.60;99.90;;;;;;5096496;28;20451;-80
2023/12/24 12:40:17;;;;;;;7.63;7.00;;;11.50;99.90;;;;;;5096336;28;20444;-80
2023/12/24 12:42:46;;;;;;;8.20;7.50;;;11.60;99.90;;;;;;5096381;28;20467;-80
2023/12/24 12:45:14;;;;;;;8.17;7.40;;;11.60;99.90;;;;;;5095733;28;20456;-79
2023/12/24 12:47:43;;;;;;;10.30;9.40;;;11.60;99.90;;;;;;5095193;28;20870;-80
2023/12/24 12:50:12;;;;;;;11.50;10.43;;;11.60;99.90;;;;;;5094986;28;20448;-80
2023/12/24 12:52:40;;;;;;;11.47;10.27;;;11.70;99.90;;;;;;5095281;28;20433;-80
2023/12/24 12:55:12;;;;;;;12.97;11.67;;;11.70;99.90;;;;;;5094758;28;20452;-81
2023/12/24 12:57:42;;;;;;;13.27;12.07;;;11.70;99.90;;;;;;5096016;28;20417;-80
2023/12/24 13:00:13;;;;;;;13.30;12.07;;;11.70;99.90;;;;;;5095266;28;20447;-80
2023/12/24 13:02:44;;;;;;;13.20;11.90;;;11.70;99.90;;;;;;5095495;28;20551;-80
2023/12/24 13:05:34;;;;;;;12.00;10.90;;;11.70;99.90;;;;;;5095592;28;20535;-80